sensor_id;sensor_type;location;lat;lon;timestamp;temperature;humidity
76785;SHT30;66893;44.316;0.092;2023-09-19T00:00:59;24.69;59.24
76785;SHT30;66893;44.316;0.092;2023-09-19T00:03:24;24.70;59.24
76785;SHT30;66893;44.316;0.092;2023-09-19T00:05:50;24.69;59.20
76785;SHT30;66893;44.316;0.092;2023-09-19T00:08:16;24.70;59.16
76785;SHT30;66893;44.316;0.092;2023-09-19T00:10:42;24.70;59.17
76785;SHT30;66893;44.316;0.092;2023-09-19T00:13:09;24.69;59.11
76785;SHT30;66893;44.316;0.092;2023-09-19T00:15:40;24.69;59.14
76785;SHT30;66893;44.316;0.092;2023-09-19T00:18:06;24.67;59.12
76785;SHT30;66893;44.316;0.092;2023-09-19T00:20:32;24.69;59.09
76785;SHT30;66893;44.316;0.092;2023-09-19T00:23:00;24.67;59.09
76785;SHT30;66893;44.316;0.092;2023-09-19T00:25:28;24.66;59.06
76785;SHT30;66893;44.316;0.092;2023-09-19T00:27:54;24.67;58.99
76785;SHT30;66893;44.316;0.092;2023-09-19T00:30:19;24.64;58.97
76785;SHT30;66893;44.316;0.092;2023-09-19T00:32:48;24.64;58.93
76785;SHT30;66893;44.316;0.092;2023-09-19T00:35:14;24.67;58.97
76785;SHT30;66893;44.316;0.092;2023-09-19T00:37:44;24.66;58.97
76785;SHT30;66893;44.316;0.092;2023-09-19T00:40:10;24.62;58.95
76785;SHT30;66893;44.316;0.092;2023-09-19T00:42:38;24.62;58.96
76785;SHT30;66893;44.316;0.092;2023-09-19T00:45:05;24.63;58.90
76785;SHT30;66893;44.316;0.092;2023-09-19T00:47:31;24.62;58.91
76785;SHT30;66893;44.316;0.092;2023-09-19T00:49:57;24.64;58.91
76785;SHT30;66893;44.316;0.092;2023-09-19T00:52:23;24.62;58.92
76785;SHT30;66893;44.316;0.092;2023-09-19T00:54:49;24.60;58.96
76785;SHT30;66893;44.316;0.092;2023-09-19T00:57:14;24.60;58.88
76785;SHT30;66893;44.316;0.092;2023-09-19T00:59:41;24.59;58.92
76785;SHT30;66893;44.316;0.092;2023-09-19T01:02:07;24.57;58.93
76785;SHT30;66893;44.316;0.092;2023-09-19T01:04:33;24.59;58.92
76785;SHT30;66893;44.316;0.092;2023-09-19T01:06:59;24.57;58.96
76785;SHT30;66893;44.316;0.092;2023-09-19T01:09:25;24.60;58.95
76785;SHT30;66893;44.316;0.092;2023-09-19T01:11:53;24.57;58.95
76785;SHT30;66893;44.316;0.092;2023-09-19T01:14:34;24.57;58.96
76785;SHT30;66893;44.316;0.092;2023-09-19T01:17:14;24.57;59.00
76785;SHT30;66893;44.316;0.092;2023-09-19T01:20:24;24.56;58.92
76785;SHT30;66893;44.316;0.092;2023-09-19T01:26:11;24.53;58.99
76785;SHT30;66893;44.316;0.092;2023-09-19T01:31:34;24.49;59.10
76785;SHT30;66893;44.316;0.092;2023-09-19T01:34:03;24.51;59.07
76785;SHT30;66893;44.316;0.092;2023-09-19T01:36:35;24.53;59.04
76785;SHT30;66893;44.316;0.092;2023-09-19T01:39:04;24.51;59.05
76785;SHT30;66893;44.316;0.092;2023-09-19T01:41:57;24.48;59.07
76785;SHT30;66893;44.316;0.092;2023-09-19T01:44:35;24.49;59.04
76785;SHT30;66893;44.316;0.092;2023-09-19T01:47:05;24.49;59.09
76785;SHT30;66893;44.316;0.092;2023-09-19T01:49:47;24.49;59.10
76785;SHT30;66893;44.316;0.092;2023-09-19T01:52:15;24.49;59.08
76785;SHT30;66893;44.316;0.092;2023-09-19T01:54:48;24.46;59.11
76785;SHT30;66893;44.316;0.092;2023-09-19T01:57:22;24.45;59.09
76785;SHT30;66893;44.316;0.092;2023-09-19T01:59:56;24.45;59.13
76785;SHT30;66893;44.316;0.092;2023-09-19T02:02:25;24.45;59.09
76785;SHT30;66893;44.316;0.092;2023-09-19T02:04:50;24.45;59.11
76785;SHT30;66893;44.316;0.092;2023-09-19T02:07:16;24.43;59.11
76785;SHT30;66893;44.316;0.092;2023-09-19T02:09:42;24.40;59.12
76785;SHT30;66893;44.316;0.092;2023-09-19T02:12:09;24.40;59.08
76785;SHT30;66893;44.316;0.092;2023-09-19T02:14:34;24.42;59.12
76785;SHT30;66893;44.316;0.092;2023-09-19T02:17:02;24.42;59.13
76785;SHT30;66893;44.316;0.092;2023-09-19T02:19:32;24.39;59.08
76785;SHT30;66893;44.316;0.092;2023-09-19T02:21:59;24.37;59.08
76785;SHT30;66893;44.316;0.092;2023-09-19T02:24:25;24.37;59.08
76785;SHT30;66893;44.316;0.092;2023-09-19T02:26:52;24.36;59.10
76785;SHT30;66893;44.316;0.092;2023-09-19T02:29:19;24.33;59.12
76785;SHT30;66893;44.316;0.092;2023-09-19T02:31:47;24.32;59.08
76785;SHT30;66893;44.316;0.092;2023-09-19T02:34:12;24.32;59.08
76785;SHT30;66893;44.316;0.092;2023-09-19T02:36:41;24.32;59.04
76785;SHT30;66893;44.316;0.092;2023-09-19T02:39:09;24.30;59.09
76785;SHT30;66893;44.316;0.092;2023-09-19T02:41:36;24.30;59.06
76785;SHT30;66893;44.316;0.092;2023-09-19T02:44:01;24.29;59.05
76785;SHT30;66893;44.316;0.092;2023-09-19T02:46:27;24.29;59.08
76785;SHT30;66893;44.316;0.092;2023-09-19T02:48:53;24.30;59.06
76785;SHT30;66893;44.316;0.092;2023-09-19T02:51:20;24.26;59.10
76785;SHT30;66893;44.316;0.092;2023-09-19T02:53:45;24.29;59.07
76785;SHT30;66893;44.316;0.092;2023-09-19T02:56:13;24.26;59.07
76785;SHT30;66893;44.316;0.092;2023-09-19T02:58:39;24.25;59.07
76785;SHT30;66893;44.316;0.092;2023-09-19T03:01:10;24.25;59.06
76785;SHT30;66893;44.316;0.092;2023-09-19T03:03:39;24.24;59.09
76785;SHT30;66893;44.316;0.092;2023-09-19T03:06:06;24.24;59.07
76785;SHT30;66893;44.316;0.092;2023-09-19T03:08:34;24.24;59.08
76785;SHT30;66893;44.316;0.092;2023-09-19T03:11:03;24.25;59.10
76785;SHT30;66893;44.316;0.092;2023-09-19T03:13:31;24.21;59.09
76785;SHT30;66893;44.316;0.092;2023-09-19T03:15:57;24.17;59.13
76785;SHT30;66893;44.316;0.092;2023-09-19T03:18:26;24.19;59.10
76785;SHT30;66893;44.316;0.092;2023-09-19T03:20:54;24.18;59.11
76785;SHT30;66893;44.316;0.092;2023-09-19T03:23:20;24.18;59.13
76785;SHT30;66893;44.316;0.092;2023-09-19T03:25:45;24.17;59.15
76785;SHT30;66893;44.316;0.092;2023-09-19T03:28:11;24.15;59.13
76785;SHT30;66893;44.316;0.092;2023-09-19T03:30:37;24.15;59.14
76785;SHT30;66893;44.316;0.092;2023-09-19T03:33:04;24.15;59.12
76785;SHT30;66893;44.316;0.092;2023-09-19T03:35:30;24.14;59.17
76785;SHT30;66893;44.316;0.092;2023-09-19T03:37:55;24.14;59.15
76785;SHT30;66893;44.316;0.092;2023-09-19T03:40:21;24.12;59.19
76785;SHT30;66893;44.316;0.092;2023-09-19T03:42:48;24.12;59.16
76785;SHT30;66893;44.316;0.092;2023-09-19T03:45:14;24.11;59.17
76785;SHT30;66893;44.316;0.092;2023-09-19T03:47:41;24.11;59.20
76785;SHT30;66893;44.316;0.092;2023-09-19T03:50:07;24.12;59.20
76785;SHT30;66893;44.316;0.092;2023-09-19T03:52:33;24.09;59.19
76785;SHT30;66893;44.316;0.092;2023-09-19T03:54:59;24.11;59.23
76785;SHT30;66893;44.316;0.092;2023-09-19T03:57:26;24.12;59.24
76785;SHT30;66893;44.316;0.092;2023-09-19T03:59:52;24.08;59.29
76785;SHT30;66893;44.316;0.092;2023-09-19T04:02:19;24.07;59.31
76785;SHT30;66893;44.316;0.092;2023-09-19T04:04:48;24.08;59.30
76785;SHT30;66893;44.316;0.092;2023-09-19T04:07:14;24.08;59.32
76785;SHT30;66893;44.316;0.092;2023-09-19T04:09:39;24.07;59.33
76785;SHT30;66893;44.316;0.092;2023-09-19T04:12:05;24.08;59.37
76785;SHT30;66893;44.316;0.092;2023-09-19T04:14:30;24.08;59.33
76785;SHT30;66893;44.316;0.092;2023-09-19T04:16:56;24.05;59.42
76785;SHT30;66893;44.316;0.092;2023-09-19T04:19:21;24.05;59.40
76785;SHT30;66893;44.316;0.092;2023-09-19T04:21:47;24.07;59.43
76785;SHT30;66893;44.316;0.092;2023-09-19T04:24:12;24.04;59.52
76785;SHT30;66893;44.316;0.092;2023-09-19T04:26:38;24.07;59.50
76785;SHT30;66893;44.316;0.092;2023-09-19T04:29:04;24.07;59.49
76785;SHT30;66893;44.316;0.092;2023-09-19T04:31:30;24.05;59.49
76785;SHT30;66893;44.316;0.092;2023-09-19T04:33:57;24.05;59.53
76785;SHT30;66893;44.316;0.092;2023-09-19T04:36:24;24.04;59.59
76785;SHT30;66893;44.316;0.092;2023-09-19T04:38:50;24.07;59.60
76785;SHT30;66893;44.316;0.092;2023-09-19T04:41:15;24.05;59.61
76785;SHT30;66893;44.316;0.092;2023-09-19T04:43:41;24.04;59.62
76785;SHT30;66893;44.316;0.092;2023-09-19T04:46:06;24.04;59.64
76785;SHT30;66893;44.316;0.092;2023-09-19T04:48:32;24.05;59.65
76785;SHT30;66893;44.316;0.092;2023-09-19T04:51:00;24.05;59.64
76785;SHT30;66893;44.316;0.092;2023-09-19T04:53:25;24.01;59.72
76785;SHT30;66893;44.316;0.092;2023-09-19T04:55:53;24.05;59.70
76785;SHT30;66893;44.316;0.092;2023-09-19T04:58:21;24.04;59.71
76785;SHT30;66893;44.316;0.092;2023-09-19T05:00:47;24.01;59.74
76785;SHT30;66893;44.316;0.092;2023-09-19T05:03:12;24.05;59.76
76785;SHT30;66893;44.316;0.092;2023-09-19T05:05:38;24.01;59.76
76785;SHT30;66893;44.316;0.092;2023-09-19T05:08:04;24.02;59.79
76785;SHT30;66893;44.316;0.092;2023-09-19T05:10:32;24.01;59.78
76785;SHT30;66893;44.316;0.092;2023-09-19T05:12:57;24.00;59.79
76785;SHT30;66893;44.316;0.092;2023-09-19T05:15:22;24.00;59.80
76785;SHT30;66893;44.316;0.092;2023-09-19T05:17:52;24.01;59.84
76785;SHT30;66893;44.316;0.092;2023-09-19T05:20:19;24.02;59.85
76785;SHT30;66893;44.316;0.092;2023-09-19T05:23:04;24.02;59.81
76785;SHT30;66893;44.316;0.092;2023-09-19T05:25:35;24.01;59.88
76785;SHT30;66893;44.316;0.092;2023-09-19T05:28:03;24.01;59.90
76785;SHT30;66893;44.316;0.092;2023-09-19T05:30:31;24.01;59.86
76785;SHT30;66893;44.316;0.092;2023-09-19T05:32:58;24.00;59.90
76785;SHT30;66893;44.316;0.092;2023-09-19T05:35:24;24.02;59.91
76785;SHT30;66893;44.316;0.092;2023-09-19T05:37:53;24.00;59.94
76785;SHT30;66893;44.316;0.092;2023-09-19T05:40:20;24.01;59.93
76785;SHT30;66893;44.316;0.092;2023-09-19T05:42:46;24.01;59.96
76785;SHT30;66893;44.316;0.092;2023-09-19T05:45:13;24.01;59.99
76785;SHT30;66893;44.316;0.092;2023-09-19T05:47:42;24.04;59.96
76785;SHT30;66893;44.316;0.092;2023-09-19T05:50:10;24.00;59.98
76785;SHT30;66893;44.316;0.092;2023-09-19T05:52:36;24.01;59.99
76785;SHT30;66893;44.316;0.092;2023-09-19T05:55:04;24.02;60.01
76785;SHT30;66893;44.316;0.092;2023-09-19T05:57:31;24.01;60.07
76785;SHT30;66893;44.316;0.092;2023-09-19T05:59:57;24.01;60.02
76785;SHT30;66893;44.316;0.092;2023-09-19T06:02:23;24.01;60.07
76785;SHT30;66893;44.316;0.092;2023-09-19T06:04:48;24.01;60.09
76785;SHT30;66893;44.316;0.092;2023-09-19T06:07:14;24.02;60.06
76785;SHT30;66893;44.316;0.092;2023-09-19T06:09:41;24.01;60.07
76785;SHT30;66893;44.316;0.092;2023-09-19T06:12:07;24.00;60.10
76785;SHT30;66893;44.316;0.092;2023-09-19T06:14:32;24.04;60.12
76785;SHT30;66893;44.316;0.092;2023-09-19T06:16:58;24.04;60.02
76785;SHT30;66893;44.316;0.092;2023-09-19T06:19:23;23.98;59.91
76785;SHT30;66893;44.316;0.092;2023-09-19T06:21:52;23.85;60.05
76785;SHT30;66893;44.316;0.092;2023-09-19T06:24:19;23.71;60.13
76785;SHT30;66893;44.316;0.092;2023-09-19T06:26:45;23.53;60.33
76785;SHT30;66893;44.316;0.092;2023-09-19T06:29:10;23.46;60.47
76785;SHT30;66893;44.316;0.092;2023-09-19T06:31:36;23.36;60.62
76785;SHT30;66893;44.316;0.092;2023-09-19T06:34:04;23.22;60.84
76785;SHT30;66893;44.316;0.092;2023-09-19T06:36:30;23.11;61.13
76785;SHT30;66893;44.316;0.092;2023-09-19T06:38:55;22.97;61.41
76785;SHT30;66893;44.316;0.092;2023-09-19T06:41:20;22.88;61.40
76785;SHT30;66893;44.316;0.092;2023-09-19T06:43:50;22.81;61.53
76785;SHT30;66893;44.316;0.092;2023-09-19T06:46:18;22.75;61.74
76785;SHT30;66893;44.316;0.092;2023-09-19T06:48:44;22.72;61.88
76785;SHT30;66893;44.316;0.092;2023-09-19T06:51:10;22.68;61.97
76785;SHT30;66893;44.316;0.092;2023-09-19T06:53:35;22.61;62.16
76785;SHT30;66893;44.316;0.092;2023-09-19T06:56:02;22.60;62.24
76785;SHT30;66893;44.316;0.092;2023-09-19T06:58:28;22.54;62.27
76785;SHT30;66893;44.316;0.092;2023-09-19T07:00:53;22.50;62.28
76785;SHT30;66893;44.316;0.092;2023-09-19T07:03:19;22.47;62.50
76785;SHT30;66893;44.316;0.092;2023-09-19T07:05:47;22.46;62.74
76785;SHT30;66893;44.316;0.092;2023-09-19T07:08:13;22.44;62.63
76785;SHT30;66893;44.316;0.092;2023-09-19T07:10:39;22.39;63.07
76785;SHT30;66893;44.316;0.092;2023-09-19T07:13:14;22.37;63.00
76785;SHT30;66893;44.316;0.092;2023-09-19T07:15:42;22.30;63.37
76785;SHT30;66893;44.316;0.092;2023-09-19T07:18:15;22.23;63.28
76785;SHT30;66893;44.316;0.092;2023-09-19T07:20:44;22.26;63.31
76785;SHT30;66893;44.316;0.092;2023-09-19T07:23:20;22.26;63.30
76785;SHT30;66893;44.316;0.092;2023-09-19T07:25:46;22.28;63.26
76785;SHT30;66893;44.316;0.092;2023-09-19T07:28:12;22.26;63.38
76785;SHT30;66893;44.316;0.092;2023-09-19T07:30:38;22.25;63.59
76785;SHT30;66893;44.316;0.092;2023-09-19T07:33:05;22.28;63.60
76785;SHT30;66893;44.316;0.092;2023-09-19T07:35:31;22.32;63.61
76785;SHT30;66893;44.316;0.092;2023-09-19T07:37:57;22.26;63.63
76785;SHT30;66893;44.316;0.092;2023-09-19T07:40:24;22.28;63.87
76785;SHT30;66893;44.316;0.092;2023-09-19T07:42:52;22.26;63.81
76785;SHT30;66893;44.316;0.092;2023-09-19T07:45:18;22.25;63.80
76785;SHT30;66893;44.316;0.092;2023-09-19T07:47:48;22.22;64.18
76785;SHT30;66893;44.316;0.092;2023-09-19T07:50:14;22.16;64.18
76785;SHT30;66893;44.316;0.092;2023-09-19T07:52:41;22.13;64.20
76785;SHT30;66893;44.316;0.092;2023-09-19T07:55:08;22.09;64.24
76785;SHT30;66893;44.316;0.092;2023-09-19T07:57:35;22.10;64.30
76785;SHT30;66893;44.316;0.092;2023-09-19T08:00:01;22.13;64.43
76785;SHT30;66893;44.316;0.092;2023-09-19T08:02:29;22.13;64.41
76785;SHT30;66893;44.316;0.092;2023-09-19T08:04:55;22.16;64.59
76785;SHT30;66893;44.316;0.092;2023-09-19T08:07:22;22.19;64.57
76785;SHT30;66893;44.316;0.092;2023-09-19T08:09:48;22.25;64.48
76785;SHT30;66893;44.316;0.092;2023-09-19T08:12:14;22.28;64.33
76785;SHT30;66893;44.316;0.092;2023-09-19T08:14:40;22.32;64.55
76785;SHT30;66893;44.316;0.092;2023-09-19T08:17:08;22.35;64.45
76785;SHT30;66893;44.316;0.092;2023-09-19T08:19:34;22.37;64.52
76785;SHT30;66893;44.316;0.092;2023-09-19T08:21:59;22.37;64.39
76785;SHT30;66893;44.316;0.092;2023-09-19T08:24:29;22.40;64.61
76785;SHT30;66893;44.316;0.092;2023-09-19T08:26:55;22.44;64.46
76785;SHT30;66893;44.316;0.092;2023-09-19T08:29:22;22.53;64.50
76785;SHT30;66893;44.316;0.092;2023-09-19T08:31:54;22.59;64.39
76785;SHT30;66893;44.316;0.092;2023-09-19T08:34:19;22.64;64.41
76785;SHT30;66893;44.316;0.092;2023-09-19T08:36:46;22.72;64.34
76785;SHT30;66893;44.316;0.092;2023-09-19T08:39:13;22.78;64.17
76785;SHT30;66893;44.316;0.092;2023-09-19T08:41:39;22.75;64.39
76785;SHT30;66893;44.316;0.092;2023-09-19T08:44:05;22.83;64.49
76785;SHT30;66893;44.316;0.092;2023-09-19T08:46:34;22.86;64.29
76785;SHT30;66893;44.316;0.092;2023-09-19T08:49:05;22.91;64.37
76785;SHT30;66893;44.316;0.092;2023-09-19T08:51:43;23.01;64.24
76785;SHT30;66893;44.316;0.092;2023-09-19T08:54:32;23.07;64.16
76785;SHT30;66893;44.316;0.092;2023-09-19T08:57:05;23.14;64.16
76785;SHT30;66893;44.316;0.092;2023-09-19T08:59:33;23.16;63.99
76785;SHT30;66893;44.316;0.092;2023-09-19T09:02:01;23.14;63.97
76785;SHT30;66893;44.316;0.092;2023-09-19T09:04:29;23.18;63.84
76785;SHT30;66893;44.316;0.092;2023-09-19T09:06:56;23.19;63.96
76785;SHT30;66893;44.316;0.092;2023-09-19T09:09:22;23.23;63.98
76785;SHT30;66893;44.316;0.092;2023-09-19T09:11:48;23.29;64.19
76785;SHT30;66893;44.316;0.092;2023-09-19T09:14:19;23.33;63.98
76785;SHT30;66893;44.316;0.092;2023-09-19T09:16:46;23.41;63.86
76785;SHT30;66893;44.316;0.092;2023-09-19T09:19:14;23.45;63.88
76785;SHT30;66893;44.316;0.092;2023-09-19T09:21:39;23.49;63.65
76785;SHT30;66893;44.316;0.092;2023-09-19T09:24:30;23.53;63.45
76785;SHT30;66893;44.316;0.092;2023-09-19T09:26:59;23.54;63.29
76785;SHT30;66893;44.316;0.092;2023-09-19T09:29:51;23.57;63.29
76785;SHT30;66893;44.316;0.092;2023-09-19T09:32:24;23.63;62.96
76785;SHT30;66893;44.316;0.092;2023-09-19T09:34:54;23.64;62.60
76785;SHT30;66893;44.316;0.092;2023-09-19T09:37:21;23.66;62.51
76785;SHT30;66893;44.316;0.092;2023-09-19T09:40:05;23.69;62.60
76785;SHT30;66893;44.316;0.092;2023-09-19T09:42:40;23.74;62.57
76785;SHT30;66893;44.316;0.092;2023-09-19T09:45:21;23.81;62.58
76785;SHT30;66893;44.316;0.092;2023-09-19T09:48:00;23.93;62.67
76785;SHT30;66893;44.316;0.092;2023-09-19T09:50:32;24.01;62.35
76785;SHT30;66893;44.316;0.092;2023-09-19T09:53:29;24.12;62.26
76785;SHT30;66893;44.316;0.092;2023-09-19T09:56:01;24.22;61.93
76785;SHT30;66893;44.316;0.092;2023-09-19T09:58:30;24.22;61.93
76785;SHT30;66893;44.316;0.092;2023-09-19T10:01:00;24.26;61.63
76785;SHT30;66893;44.316;0.092;2023-09-19T10:03:38;24.32;61.30
76785;SHT30;66893;44.316;0.092;2023-09-19T10:06:13;24.29;61.32
76785;SHT30;66893;44.316;0.092;2023-09-19T10:09:04;24.29;61.29
76785;SHT30;66893;44.316;0.092;2023-09-19T10:11:41;24.30;61.23
76785;SHT30;66893;44.316;0.092;2023-09-19T10:14:09;24.32;61.10
76785;SHT30;66893;44.316;0.092;2023-09-19T10:16:40;24.33;61.03
76785;SHT30;66893;44.316;0.092;2023-09-19T10:19:07;24.35;60.93
76785;SHT30;66893;44.316;0.092;2023-09-19T10:21:36;24.36;60.87
76785;SHT30;66893;44.316;0.092;2023-09-19T10:24:03;24.37;60.98
76785;SHT30;66893;44.316;0.092;2023-09-19T10:26:32;24.43;60.95
76785;SHT30;66893;44.316;0.092;2023-09-19T10:29:00;24.48;60.88
76785;SHT30;66893;44.316;0.092;2023-09-19T10:31:29;24.53;60.60
76785;SHT30;66893;44.316;0.092;2023-09-19T10:34:02;24.60;60.41
76785;SHT30;66893;44.316;0.092;2023-09-19T10:36:33;24.59;60.25
76785;SHT30;66893;44.316;0.092;2023-09-19T10:39:02;24.63;60.13
76785;SHT30;66893;44.316;0.092;2023-09-19T10:41:32;24.66;59.74
76785;SHT30;66893;44.316;0.092;2023-09-19T10:44:03;24.70;59.53
76785;SHT30;66893;44.316;0.092;2023-09-19T10:46:31;24.72;58.98
76785;SHT30;66893;44.316;0.092;2023-09-19T10:49:06;24.72;58.84
76785;SHT30;66893;44.316;0.092;2023-09-19T10:51:40;24.76;58.86
76785;SHT30;66893;44.316;0.092;2023-09-19T10:54:11;24.83;58.79
76785;SHT30;66893;44.316;0.092;2023-09-19T10:56:42;24.91;58.62
76785;SHT30;66893;44.316;0.092;2023-09-19T10:59:12;24.95;58.51
76785;SHT30;66893;44.316;0.092;2023-09-19T11:01:51;25.01;58.59
76785;SHT30;66893;44.316;0.092;2023-09-19T11:04:24;25.07;58.34
76785;SHT30;66893;44.316;0.092;2023-09-19T11:09:54;25.10;58.27
76785;SHT30;66893;44.316;0.092;2023-09-19T11:14:51;25.26;58.01
76785;SHT30;66893;44.316;0.092;2023-09-19T11:30:44;25.62;56.94
76785;SHT30;66893;44.316;0.092;2023-09-19T11:36:15;25.74;56.48
76785;SHT30;66893;44.316;0.092;2023-09-19T11:49:18;26.13;55.82
76785;SHT30;66893;44.316;0.092;2023-09-19T11:51:50;26.22;55.54
76785;SHT30;66893;44.316;0.092;2023-09-19T11:54:17;26.27;55.63
76785;SHT30;66893;44.316;0.092;2023-09-19T11:56:51;26.35;55.56
76785;SHT30;66893;44.316;0.092;2023-09-19T11:59:29;26.44;55.44
76785;SHT30;66893;44.316;0.092;2023-09-19T12:01:57;26.49;55.48
76785;SHT30;66893;44.316;0.092;2023-09-19T12:04:34;26.55;55.34
76785;SHT30;66893;44.316;0.092;2023-09-19T12:07:04;26.62;55.08
76785;SHT30;66893;44.316;0.092;2023-09-19T12:09:31;26.63;54.60
76785;SHT30;66893;44.316;0.092;2023-09-19T12:11:57;26.69;54.66
76785;SHT30;66893;44.316;0.092;2023-09-19T12:14:24;26.76;54.48
76785;SHT30;66893;44.316;0.092;2023-09-19T12:16:53;26.82;54.48
76785;SHT30;66893;44.316;0.092;2023-09-19T12:19:21;26.89;54.38
76785;SHT30;66893;44.316;0.092;2023-09-19T12:21:57;26.90;54.24
76785;SHT30;66893;44.316;0.092;2023-09-19T12:24:25;26.96;54.14
76785;SHT30;66893;44.316;0.092;2023-09-19T12:26:59;26.99;54.24
76785;SHT30;66893;44.316;0.092;2023-09-19T12:29:26;27.04;54.31
76785;SHT30;66893;44.316;0.092;2023-09-19T12:31:54;27.06;54.09
76785;SHT30;66893;44.316;0.092;2023-09-19T12:34:27;27.07;54.17
76785;SHT30;66893;44.316;0.092;2023-09-19T12:37:13;27.15;54.26
76785;SHT30;66893;44.316;0.092;2023-09-19T12:40:07;27.20;54.26
76785;SHT30;66893;44.316;0.092;2023-09-19T12:42:48;27.24;54.31
76785;SHT30;66893;44.316;0.092;2023-09-19T12:45:15;27.30;54.33
76785;SHT30;66893;44.316;0.092;2023-09-19T12:51:03;27.37;54.01
76785;SHT30;66893;44.316;0.092;2023-09-19T12:56:06;27.44;54.15
76785;SHT30;66893;44.316;0.092;2023-09-19T12:58:34;27.46;54.07
76785;SHT30;66893;44.316;0.092;2023-09-19T13:01:00;27.51;54.00
76785;SHT30;66893;44.316;0.092;2023-09-19T13:03:27;27.55;54.03
76785;SHT30;66893;44.316;0.092;2023-09-19T13:06:04;27.58;53.57
76785;SHT30;66893;44.316;0.092;2023-09-19T13:08:32;27.55;53.57
76785;SHT30;66893;44.316;0.092;2023-09-19T13:11:16;27.58;53.54
76785;SHT30;66893;44.316;0.092;2023-09-19T13:14:13;27.59;53.50
76785;SHT30;66893;44.316;0.092;2023-09-19T13:22:36;27.75;53.46
76785;SHT30;66893;44.316;0.092;2023-09-19T13:25:02;27.81;53.32
76785;SHT30;66893;44.316;0.092;2023-09-19T13:27:29;27.86;53.25
76785;SHT30;66893;44.316;0.092;2023-09-19T13:29:54;27.92;53.10
76785;SHT30;66893;44.316;0.092;2023-09-19T13:32:20;27.96;53.00
76785;SHT30;66893;44.316;0.092;2023-09-19T13:34:45;28.01;53.02
76785;SHT30;66893;44.316;0.092;2023-09-19T13:37:11;28.04;52.99
76785;SHT30;66893;44.316;0.092;2023-09-19T13:39:38;28.10;52.89
76785;SHT30;66893;44.316;0.092;2023-09-19T13:42:08;28.13;52.74
76785;SHT30;66893;44.316;0.092;2023-09-19T13:44:37;28.16;52.81
76785;SHT30;66893;44.316;0.092;2023-09-19T13:47:03;28.21;52.81
76785;SHT30;66893;44.316;0.092;2023-09-19T13:49:34;28.25;52.65
76785;SHT30;66893;44.316;0.092;2023-09-19T13:52:00;28.30;52.67
76785;SHT30;66893;44.316;0.092;2023-09-19T13:54:28;28.37;52.60
76785;SHT30;66893;44.316;0.092;2023-09-19T13:56:54;28.38;52.53
76785;SHT30;66893;44.316;0.092;2023-09-19T13:59:19;28.43;52.40
76785;SHT30;66893;44.316;0.092;2023-09-19T14:01:51;28.47;52.43
76785;SHT30;66893;44.316;0.092;2023-09-19T14:04:19;28.52;52.34
76785;SHT30;66893;44.316;0.092;2023-09-19T14:06:44;28.59;52.23
76785;SHT30;66893;44.316;0.092;2023-09-19T14:09:11;28.61;52.19
76785;SHT30;66893;44.316;0.092;2023-09-19T14:11:38;28.64;52.05
76785;SHT30;66893;44.316;0.092;2023-09-19T14:14:04;28.68;52.06
76785;SHT30;66893;44.316;0.092;2023-09-19T14:16:30;28.68;51.93
76785;SHT30;66893;44.316;0.092;2023-09-19T14:18:56;28.66;51.81
76785;SHT30;66893;44.316;0.092;2023-09-19T14:21:23;28.68;51.39
76785;SHT30;66893;44.316;0.092;2023-09-19T14:23:48;28.65;51.12
76785;SHT30;66893;44.316;0.092;2023-09-19T14:26:14;28.65;50.76
76785;SHT30;66893;44.316;0.092;2023-09-19T14:28:41;28.68;50.94
76785;SHT30;66893;44.316;0.092;2023-09-19T14:31:10;28.75;51.07
76785;SHT30;66893;44.316;0.092;2023-09-19T14:33:36;28.79;50.99
76785;SHT30;66893;44.316;0.092;2023-09-19T14:36:04;28.83;50.98
76785;SHT30;66893;44.316;0.092;2023-09-19T14:38:33;28.90;50.90
76785;SHT30;66893;44.316;0.092;2023-09-19T14:41:03;28.95;50.68
76785;SHT30;66893;44.316;0.092;2023-09-19T14:43:29;29.00;50.63
76785;SHT30;66893;44.316;0.092;2023-09-19T14:46:15;29.09;50.64
76785;SHT30;66893;44.316;0.092;2023-09-19T14:48:41;29.09;50.49
76785;SHT30;66893;44.316;0.092;2023-09-19T14:51:08;29.16;50.37
76785;SHT30;66893;44.316;0.092;2023-09-19T14:53:37;29.20;50.24
76785;SHT30;66893;44.316;0.092;2023-09-19T14:56:04;29.23;49.94
76785;SHT30;66893;44.316;0.092;2023-09-19T14:58:33;29.28;49.73
76785;SHT30;66893;44.316;0.092;2023-09-19T15:01:12;29.30;49.66
76785;SHT30;66893;44.316;0.092;2023-09-19T15:03:39;29.39;49.70
76785;SHT30;66893;44.316;0.092;2023-09-19T15:06:08;29.41;49.59
76785;SHT30;66893;44.316;0.092;2023-09-19T15:08:34;29.48;49.45
76785;SHT30;66893;44.316;0.092;2023-09-19T15:11:01;29.53;49.27
76785;SHT30;66893;44.316;0.092;2023-09-19T15:13:33;29.58;49.33
76785;SHT30;66893;44.316;0.092;2023-09-19T15:16:03;29.61;49.16
76785;SHT30;66893;44.316;0.092;2023-09-19T15:18:29;29.65;49.05
76785;SHT30;66893;44.316;0.092;2023-09-19T15:21:00;29.69;49.10
76785;SHT30;66893;44.316;0.092;2023-09-19T15:23:25;29.75;48.93
76785;SHT30;66893;44.316;0.092;2023-09-19T15:25:50;29.79;48.62
76785;SHT30;66893;44.316;0.092;2023-09-19T15:28:17;29.86;48.57
76785;SHT30;66893;44.316;0.092;2023-09-19T15:30:44;29.95;48.60
76785;SHT30;66893;44.316;0.092;2023-09-19T15:33:09;30.00;48.51
76785;SHT30;66893;44.316;0.092;2023-09-19T15:35:35;30.08;48.34
76785;SHT30;66893;44.316;0.092;2023-09-19T15:38:03;30.17;48.35
76785;SHT30;66893;44.316;0.092;2023-09-19T15:40:28;30.23;48.21
76785;SHT30;66893;44.316;0.092;2023-09-19T15:42:54;30.40;48.15
76785;SHT30;66893;44.316;0.092;2023-09-19T15:45:21;30.74;48.26
76785;SHT30;66893;44.316;0.092;2023-09-19T15:47:47;31.65;47.65
76785;SHT30;66893;44.316;0.092;2023-09-19T15:50:12;32.80;46.24
76785;SHT30;66893;44.316;0.092;2023-09-19T15:52:41;33.91;44.88
76785;SHT30;66893;44.316;0.092;2023-09-19T15:55:07;34.86;43.46
76785;SHT30;66893;44.316;0.092;2023-09-19T15:57:36;35.66;42.29
76785;SHT30;66893;44.316;0.092;2023-09-19T16:00:01;36.27;41.40
76785;SHT30;66893;44.316;0.092;2023-09-19T16:02:29;36.78;40.66
76785;SHT30;66893;44.316;0.092;2023-09-19T16:04:55;37.17;40.01
76785;SHT30;66893;44.316;0.092;2023-09-19T16:07:21;37.60;39.44
76785;SHT30;66893;44.316;0.092;2023-09-19T16:09:46;37.89;38.97
76785;SHT30;66893;44.316;0.092;2023-09-19T16:12:12;38.20;38.43
76785;SHT30;66893;44.316;0.092;2023-09-19T16:14:39;38.47;37.99
76785;SHT30;66893;44.316;0.092;2023-09-19T16:17:05;38.68;37.53
76785;SHT30;66893;44.316;0.092;2023-09-19T16:19:32;38.87;37.24
76785;SHT30;66893;44.316;0.092;2023-09-19T16:21:58;38.94;36.95
76785;SHT30;66893;44.316;0.092;2023-09-19T16:24:24;38.74;36.93
76785;SHT30;66893;44.316;0.092;2023-09-19T16:26:50;38.36;37.20
76785;SHT30;66893;44.316;0.092;2023-09-19T16:29:17;37.92;37.46